sensor_id;sensor_type;location;lat;lon;timestamp;P1;durP1;ratioP1;P2;durP2;ratioP2
31768;SDS011;18342;52.132;21.048;2022-07-29T02:00:23;5.65;;;2.70;;
31768;SDS011;18342;52.132;21.048;2022-07-29T02:02:50;3.85;;;2.70;;
31768;SDS011;18342;52.132;21.048;2022-07-29T02:05:18;2.88;;;2.20;;
31768;SDS011;18342;52.132;21.048;2022-07-29T02:07:47;2.72;;;2.30;;
31768;SDS011;18342;52.132;21.048;2022-07-29T02:10:14;4.53;;;2.40;;
31768;SDS011;18342;52.132;21.048;2022-07-29T02:12:42;3.67;;;2.35;;
31768;SDS011;18342;52.132;21.048;2022-07-29T02:15:09;6.70;;;2.40;;
31768;SDS011;18342;52.132;21.048;2022-07-29T02:17:48;4.88;;;2.80;;
31768;SDS011;18342;52.132;21.048;2022-07-29T02:20:19;5.18;;;2.22;;
31768;SDS011;18342;52.132;21.048;2022-07-29T02:22:44;3.88;;;2.75;;
31768;SDS011;18342;52.132;21.048;2022-07-29T02:25:12;4.80;;;2.45;;
31768;SDS011;18342;52.132;21.048;2022-07-29T02:27:39;6.63;;;2.55;;
31768;SDS011;18342;52.132;21.048;2022-07-29T02:30:07;5.38;;;2.47;;
31768;SDS011;18342;52.132;21.048;2022-07-29T02:32:35;4.32;;;2.20;;
31768;SDS011;18342;52.132;21.048;2022-07-29T02:35:03;3.97;;;2.30;;
31768;SDS011;18342;52.132;21.048;2022-07-29T02:37:30;3.72;;;2.15;;
31768;SDS011;18342;52.132;21.048;2022-07-29T02:39:57;3.83;;;2.10;;
31768;SDS011;18342;52.132;21.048;2022-07-29T02:42:23;3.25;;;2.00;;
31768;SDS011;18342;52.132;21.048;2022-07-29T02:44:52;4.47;;;2.10;;
31768;SDS011;18342;52.132;21.048;2022-07-29T02:52:47;4.75;;;1.92;;
31768;SDS011;18342;52.132;21.048;2022-07-29T02:55:22;5.20;;;2.03;;
31768;SDS011;18342;52.132;21.048;2022-07-29T02:57:57;5.10;;;2.10;;
31768;SDS011;18342;52.132;21.048;2022-07-29T03:00:42;4.45;;;2.15;;
31768;SDS011;18342;52.132;21.048;2022-07-29T03:03:12;3.60;;;2.00;;
31768;SDS011;18342;52.132;21.048;2022-07-29T03:05:40;3.22;;;2.00;;
31768;SDS011;18342;52.132;21.048;2022-07-29T03:08:06;3.53;;;1.90;;
31768;SDS011;18342;52.132;21.048;2022-07-29T03:10:35;3.33;;;1.63;;
31768;SDS011;18342;52.132;21.048;2022-07-29T03:13:04;4.47;;;2.08;;
31768;SDS011;18342;52.132;21.048;2022-07-29T03:15:31;3.72;;;1.83;;
31768;SDS011;18342;52.132;21.048;2022-07-29T03:17:57;3.10;;;1.90;;
31768;SDS011;18342;52.132;21.048;2022-07-29T03:20:24;2.95;;;2.13;;
31768;SDS011;18342;52.132;21.048;2022-07-29T03:22:50;4.10;;;1.90;;
31768;SDS011;18342;52.132;21.048;2022-07-29T03:25:17;2.60;;;1.80;;
31768;SDS011;18342;52.132;21.048;2022-07-29T03:27:44;3.63;;;1.73;;
31768;SDS011;18342;52.132;21.048;2022-07-29T03:30:11;2.55;;;1.52;;
31768;SDS011;18342;52.132;21.048;2022-07-29T03:32:37;3.58;;;1.83;;
31768;SDS011;18342;52.132;21.048;2022-07-29T03:35:04;1.92;;;1.67;;
31768;SDS011;18342;52.132;21.048;2022-07-29T03:37:30;4.68;;;2.10;;
31768;SDS011;18342;52.132;21.048;2022-07-29T03:39:57;3.83;;;1.52;;
31768;SDS011;18342;52.132;21.048;2022-07-29T03:42:24;4.95;;;2.05;;
31768;SDS011;18342;52.132;21.048;2022-07-29T03:44:53;3.60;;;1.95;;
31768;SDS011;18342;52.132;21.048;2022-07-29T03:47:22;7.13;;;2.35;;
31768;SDS011;18342;52.132;21.048;2022-07-29T03:49:50;4.70;;;1.98;;
31768;SDS011;18342;52.132;21.048;2022-07-29T03:52:18;4.22;;;1.70;;
31768;SDS011;18342;52.132;21.048;2022-07-29T03:54:45;2.45;;;1.67;;
31768;SDS011;18342;52.132;21.048;2022-07-29T03:57:12;4.30;;;2.00;;
31768;SDS011;18342;52.132;21.048;2022-07-29T03:59:39;3.40;;;1.52;;
31768;SDS011;18342;52.132;21.048;2022-07-29T04:02:06;3.17;;;1.92;;
31768;SDS011;18342;52.132;21.048;2022-07-29T04:04:34;4.38;;;2.00;;
31768;SDS011;18342;52.132;21.048;2022-07-29T04:07:01;4.28;;;1.80;;
31768;SDS011;18342;52.132;21.048;2022-07-29T04:09:27;7.07;;;2.00;;
31768;SDS011;18342;52.132;21.048;2022-07-29T04:11:52;5.13;;;1.95;;
31768;SDS011;18342;52.132;21.048;2022-07-29T04:14:18;5.28;;;1.80;;
31768;SDS011;18342;52.132;21.048;2022-07-29T04:16:45;3.67;;;1.70;;
31768;SDS011;18342;52.132;21.048;2022-07-29T04:19:11;5.22;;;1.80;;
31768;SDS011;18342;52.132;21.048;2022-07-29T04:21:40;3.83;;;1.90;;
31768;SDS011;18342;52.132;21.048;2022-07-29T04:24:06;5.05;;;1.83;;
31768;SDS011;18342;52.132;21.048;2022-07-29T04:26:32;3.05;;;1.85;;
31768;SDS011;18342;52.132;21.048;2022-07-29T04:28:58;3.85;;;1.52;;
31768;SDS011;18342;52.132;21.048;2022-07-29T04:31:24;9.05;;;2.13;;
31768;SDS011;18342;52.132;21.048;2022-07-29T04:33:50;3.97;;;1.60;;
31768;SDS011;18342;52.132;21.048;2022-07-29T04:36:16;5.65;;;1.85;;
31768;SDS011;18342;52.132;21.048;2022-07-29T04:38:41;5.20;;;1.42;;
31768;SDS011;18342;52.132;21.048;2022-07-29T04:41:08;4.93;;;1.60;;
31768;SDS011;18342;52.132;21.048;2022-07-29T04:43:34;4.03;;;1.85;;
31768;SDS011;18342;52.132;21.048;2022-07-29T04:46:01;7.45;;;1.70;;
31768;SDS011;18342;52.132;21.048;2022-07-29T04:48:27;4.65;;;1.90;;
31768;SDS011;18342;52.132;21.048;2022-07-29T04:50:53;2.33;;;1.75;;
31768;SDS011;18342;52.132;21.048;2022-07-29T04:53:19;4.32;;;2.05;;
31768;SDS011;18342;52.132;21.048;2022-07-29T04:55:44;3.72;;;1.77;;
31768;SDS011;18342;52.132;21.048;2022-07-29T04:58:10;3.22;;;1.65;;
31768;SDS011;18342;52.132;21.048;2022-07-29T05:00:36;3.13;;;1.73;;
31768;SDS011;18342;52.132;21.048;2022-07-29T05:03:02;1.50;;;1.20;;
31768;SDS011;18342;52.132;21.048;2022-07-29T05:05:28;1.38;;;1.27;;
31768;SDS011;18342;52.132;21.048;2022-07-29T05:07:54;4.60;;;1.48;;
31768;SDS011;18342;52.132;21.048;2022-07-29T05:10:20;6.43;;;1.75;;
31768;SDS011;18342;52.132;21.048;2022-07-29T05:12:45;6.75;;;1.50;;
31768;SDS011;18342;52.132;21.048;2022-07-29T05:15:12;2.88;;;1.30;;
31768;SDS011;18342;52.132;21.048;2022-07-29T05:17:37;4.45;;;1.73;;
31768;SDS011;18342;52.132;21.048;2022-07-29T05:20:03;5.68;;;1.73;;
31768;SDS011;18342;52.132;21.048;2022-07-29T05:22:30;2.95;;;1.70;;
31768;SDS011;18342;52.132;21.048;2022-07-29T05:24:55;3.35;;;1.13;;
31768;SDS011;18342;52.132;21.048;2022-07-29T05:27:21;3.70;;;1.50;;
31768;SDS011;18342;52.132;21.048;2022-07-29T05:29:47;2.33;;;1.45;;
31768;SDS011;18342;52.132;21.048;2022-07-29T05:32:12;3.08;;;1.48;;
31768;SDS011;18342;52.132;21.048;2022-07-29T05:34:38;3.60;;;1.30;;
31768;SDS011;18342;52.132;21.048;2022-07-29T05:37:05;3.90;;;1.40;;
31768;SDS011;18342;52.132;21.048;2022-07-29T05:39:30;3.58;;;1.13;;
31768;SDS011;18342;52.132;21.048;2022-07-29T05:41:56;1.30;;;1.10;;
31768;SDS011;18342;52.132;21.048;2022-07-29T05:44:22;1.35;;;1.10;;
31768;SDS011;18342;52.132;21.048;2022-07-29T05:46:47;7.35;;;1.10;;
31768;SDS011;18342;52.132;21.048;2022-07-29T05:49:13;3.35;;;1.33;;
31768;SDS011;18342;52.132;21.048;2022-07-29T05:51:39;1.33;;;0.93;;
31768;SDS011;18342;52.132;21.048;2022-07-29T05:54:05;1.83;;;1.40;;
31768;SDS011;18342;52.132;21.048;2022-07-29T05:56:31;1.63;;;1.02;;
31768;SDS011;18342;52.132;21.048;2022-07-29T05:58:56;3.47;;;1.10;;
31768;SDS011;18342;52.132;21.048;2022-07-29T06:01:22;3.00;;;1.05;;
31768;SDS011;18342;52.132;21.048;2022-07-29T06:03:48;1.63;;;1.00;;
31768;SDS011;18342;52.132;21.048;2022-07-29T06:06:13;2.88;;;1.02;;
31768;SDS011;18342;52.132;21.048;2022-07-29T06:08:39;1.67;;;1.00;;
31768;SDS011;18342;52.132;21.048;2022-07-29T06:11:05;1.13;;;0.98;;
31768;SDS011;18342;52.132;21.048;2022-07-29T06:13:31;2.35;;;1.02;;
31768;SDS011;18342;52.132;21.048;2022-07-29T06:15:57;5.43;;;0.88;;
31768;SDS011;18342;52.132;21.048;2022-07-29T06:18:22;4.25;;;1.20;;
31768;SDS011;18342;52.132;21.048;2022-07-29T06:20:51;1.70;;;0.93;;
31768;SDS011;18342;52.132;21.048;2022-07-29T06:23:18;2.13;;;0.90;;
31768;SDS011;18342;52.132;21.048;2022-07-29T06:25:44;1.85;;;0.70;;
31768;SDS011;18342;52.132;21.048;2022-07-29T06:28:10;3.58;;;0.90;;
31768;SDS011;18342;52.132;21.048;2022-07-29T06:30:36;2.75;;;1.10;;
31768;SDS011;18342;52.132;21.048;2022-07-29T06:33:02;1.25;;;0.80;;
31768;SDS011;18342;52.132;21.048;2022-07-29T06:35:28;1.38;;;0.75;;
31768;SDS011;18342;52.132;21.048;2022-07-29T06:37:54;1.67;;;0.93;;
31768;SDS011;18342;52.132;21.048;2022-07-29T06:40:20;1.50;;;0.85;;
31768;SDS011;18342;52.132;21.048;2022-07-29T06:43:04;2.20;;;0.98;;
31768;SDS011;18342;52.132;21.048;2022-07-29T06:45:30;2.17;;;0.90;;
31768;SDS011;18342;52.132;21.048;2022-07-29T06:47:58;1.17;;;0.70;;
31768;SDS011;18342;52.132;21.048;2022-07-29T06:50:24;2.28;;;0.90;;
31768;SDS011;18342;52.132;21.048;2022-07-29T06:52:50;1.40;;;0.80;;
31768;SDS011;18342;52.132;21.048;2022-07-29T06:55:16;3.47;;;0.90;;
31768;SDS011;18342;52.132;21.048;2022-07-29T06:57:44;1.85;;;0.70;;
31768;SDS011;18342;52.132;21.048;2022-07-29T07:00:10;4.32;;;1.15;;
31768;SDS011;18342;52.132;21.048;2022-07-29T07:02:36;1.48;;;0.93;;
31768;SDS011;18342;52.132;21.048;2022-07-29T07:05:02;0.95;;;0.82;;
31768;SDS011;18342;52.132;21.048;2022-07-29T07:07:28;0.80;;;0.80;;
31768;SDS011;18342;52.132;21.048;2022-07-29T07:09:53;3.05;;;1.10;;
31768;SDS011;18342;52.132;21.048;2022-07-29T07:12:19;0.73;;;0.73;;
31768;SDS011;18342;52.132;21.048;2022-07-29T07:14:45;3.83;;;1.02;;
31768;SDS011;18342;52.132;21.048;2022-07-29T07:17:10;2.67;;;1.00;;
31768;SDS011;18342;52.132;21.048;2022-07-29T07:19:36;4.18;;;0.80;;
31768;SDS011;18342;52.132;21.048;2022-07-29T07:22:01;1.85;;;0.90;;
31768;SDS011;18342;52.132;21.048;2022-07-29T07:24:27;1.52;;;1.00;;
31768;SDS011;18342;52.132;21.048;2022-07-29T07:26:53;1.08;;;0.85;;
31768;SDS011;18342;52.132;21.048;2022-07-29T07:29:18;2.67;;;0.80;;
31768;SDS011;18342;52.132;21.048;2022-07-29T07:31:44;2.78;;;1.00;;
31768;SDS011;18342;52.132;21.048;2022-07-29T07:34:10;3.97;;;1.30;;
31768;SDS011;18342;52.132;21.048;2022-07-29T07:36:36;3.92;;;1.00;;
31768;SDS011;18342;52.132;21.048;2022-07-29T07:39:01;2.42;;;0.98;;
31768;SDS011;18342;52.132;21.048;2022-07-29T07:41:28;4.35;;;0.80;;
31768;SDS011;18342;52.132;21.048;2022-07-29T07:43:54;1.83;;;0.52;;
31768;SDS011;18342;52.132;21.048;2022-07-29T07:46:19;3.78;;;1.00;;
31768;SDS011;18342;52.132;21.048;2022-07-29T07:48:45;2.45;;;0.88;;
31768;SDS011;18342;52.132;21.048;2022-07-29T07:51:11;3.58;;;1.13;;
31768;SDS011;18342;52.132;21.048;2022-07-29T07:53:36;2.55;;;0.80;;
31768;SDS011;18342;52.132;21.048;2022-07-29T07:56:02;1.23;;;0.85;;
31768;SDS011;18342;52.132;21.048;2022-07-29T07:58:29;4.15;;;1.08;;
31768;SDS011;18342;52.132;21.048;2022-07-29T08:00:55;2.83;;;1.00;;
31768;SDS011;18342;52.132;21.048;2022-07-29T08:03:21;3.10;;;0.98;;
31768;SDS011;18342;52.132;21.048;2022-07-29T08:05:46;1.60;;;1.00;;
31768;SDS011;18342;52.132;21.048;2022-07-29T08:08:13;2.80;;;0.98;;
31768;SDS011;18342;52.132;21.048;2022-07-29T08:10:38;3.65;;;0.82;;
31768;SDS011;18342;52.132;21.048;2022-07-29T08:13:25;2.13;;;0.80;;
31768;SDS011;18342;52.132;21.048;2022-07-29T08:15:53;1.63;;;0.90;;
31768;SDS011;18342;52.132;21.048;2022-07-29T08:18:23;1.80;;;0.90;;
31768;SDS011;18342;52.132;21.048;2022-07-29T08:20:49;1.60;;;0.80;;
31768;SDS011;18342;52.132;21.048;2022-07-29T08:23:15;2.60;;;0.65;;
31768;SDS011;18342;52.132;21.048;2022-07-29T08:25:41;2.72;;;0.85;;
31768;SDS011;18342;52.132;21.048;2022-07-29T08:28:07;3.20;;;0.95;;
31768;SDS011;18342;52.132;21.048;2022-07-29T08:30:33;3.97;;;1.17;;
31768;SDS011;18342;52.132;21.048;2022-07-29T08:32:59;3.10;;;0.90;;
31768;SDS011;18342;52.132;21.048;2022-07-29T08:35:26;2.75;;;1.00;;
31768;SDS011;18342;52.132;21.048;2022-07-29T08:37:52;2.92;;;1.00;;
31768;SDS011;18342;52.132;21.048;2022-07-29T08:40:18;1.30;;;0.80;;
31768;SDS011;18342;52.132;21.048;2022-07-29T08:42:45;1.65;;;0.70;;
31768;SDS011;18342;52.132;21.048;2022-07-29T08:45:11;4.03;;;0.80;;
31768;SDS011;18342;52.132;21.048;2022-07-29T08:47:38;1.98;;;1.10;;
31768;SDS011;18342;52.132;21.048;2022-07-29T08:50:05;2.75;;;0.82;;
31768;SDS011;18342;52.132;21.048;2022-07-29T08:52:38;2.58;;;0.80;;
31768;SDS011;18342;52.132;21.048;2022-07-29T08:55:06;4.10;;;1.00;;
31768;SDS011;18342;52.132;21.048;2022-07-29T08:57:33;4.85;;;1.20;;
31768;SDS011;18342;52.132;21.048;2022-07-29T09:00:04;2.63;;;0.90;;
31768;SDS011;18342;52.132;21.048;2022-07-29T09:02:33;2.13;;;0.93;;
31768;SDS011;18342;52.132;21.048;2022-07-29T09:05:04;3.95;;;1.08;;
31768;SDS011;18342;52.132;21.048;2022-07-29T09:07:30;2.60;;;1.00;;
31768;SDS011;18342;52.132;21.048;2022-07-29T09:09:55;2.63;;;1.08;;
31768;SDS011;18342;52.132;21.048;2022-07-29T09:12:21;7.45;;;1.02;;
31768;SDS011;18342;52.132;21.048;2022-07-29T09:14:49;3.42;;;0.90;;
31768;SDS011;18342;52.132;21.048;2022-07-29T09:17:15;2.92;;;0.90;;
31768;SDS011;18342;52.132;21.048;2022-07-29T09:19:42;1.80;;;0.88;;
31768;SDS011;18342;52.132;21.048;2022-07-29T09:22:09;2.53;;;0.85;;
31768;SDS011;18342;52.132;21.048;2022-07-29T09:24:40;5.20;;;1.20;;
31768;SDS011;18342;52.132;21.048;2022-07-29T09:27:25;5.93;;;0.93;;
31768;SDS011;18342;52.132;21.048;2022-07-29T09:30:04;5.88;;;1.20;;
31768;SDS011;18342;52.132;21.048;2022-07-29T09:32:32;3.13;;;0.98;;
31768;SDS011;18342;52.132;21.048;2022-07-29T09:35:14;2.20;;;0.90;;
31768;SDS011;18342;52.132;21.048;2022-07-29T09:37:45;2.25;;;0.73;;
31768;SDS011;18342;52.132;21.048;2022-07-29T09:40:15;0.93;;;0.80;;
31768;SDS011;18342;52.132;21.048;2022-07-29T09:42:52;3.00;;;0.80;;
31768;SDS011;18342;52.132;21.048;2022-07-29T09:45:29;5.20;;;1.00;;
31768;SDS011;18342;52.132;21.048;2022-07-29T09:47:56;2.53;;;0.90;;
31768;SDS011;18342;52.132;21.048;2022-07-29T09:50:35;1.27;;;0.85;;
31768;SDS011;18342;52.132;21.048;2022-07-29T09:53:02;4.68;;;0.90;;
31768;SDS011;18342;52.132;21.048;2022-07-29T09:55:27;3.35;;;0.70;;
31768;SDS011;18342;52.132;21.048;2022-07-29T09:57:53;3.45;;;1.08;;
31768;SDS011;18342;52.132;21.048;2022-07-29T10:00:41;3.13;;;0.90;;
31768;SDS011;18342;52.132;21.048;2022-07-29T10:03:08;1.88;;;0.82;;
31768;SDS011;18342;52.132;21.048;2022-07-29T10:05:33;1.38;;;0.70;;
31768;SDS011;18342;52.132;21.048;2022-07-29T10:07:59;8.00;;;1.13;;
31768;SDS011;18342;52.132;21.048;2022-07-29T10:10:29;2.97;;;0.98;;
31768;SDS011;18342;52.132;21.048;2022-07-29T10:13:01;2.45;;;0.93;;
31768;SDS011;18342;52.132;21.048;2022-07-29T10:15:29;2.60;;;0.80;;
31768;SDS011;18342;52.132;21.048;2022-07-29T10:17:57;2.30;;;0.60;;
31768;SDS011;18342;52.132;21.048;2022-07-29T10:20:24;1.75;;;1.00;;
31768;SDS011;18342;52.132;21.048;2022-07-29T10:22:50;2.67;;;0.90;;
31768;SDS011;18342;52.132;21.048;2022-07-29T10:25:17;2.83;;;0.93;;
31768;SDS011;18342;52.132;21.048;2022-07-29T10:27:46;1.98;;;0.80;;
31768;SDS011;18342;52.132;21.048;2022-07-29T10:30:14;1.33;;;0.75;;
31768;SDS011;18342;52.132;21.048;2022-07-29T10:43:40;2.35;;;0.90;;
31768;SDS011;18342;52.132;21.048;2022-07-29T10:46:08;1.88;;;0.68;;
31768;SDS011;18342;52.132;21.048;2022-07-29T10:48:35;3.65;;;0.82;;
31768;SDS011;18342;52.132;21.048;2022-07-29T10:51:21;1.48;;;0.77;;
31768;SDS011;18342;52.132;21.048;2022-07-29T10:56:30;1.60;;;0.68;;
31768;SDS011;18342;52.132;21.048;2022-07-29T11:01:49;2.38;;;0.88;;
31768;SDS011;18342;52.132;21.048;2022-07-29T11:04:16;2.70;;;0.90;;
31768;SDS011;18342;52.132;21.048;2022-07-29T11:07:10;1.58;;;0.77;;
31768;SDS011;18342;52.132;21.048;2022-07-29T11:09:37;1.40;;;0.80;;
31768;SDS011;18342;52.132;21.048;2022-07-29T11:12:03;2.60;;;0.75;;
31768;SDS011;18342;52.132;21.048;2022-07-29T11:14:55;6.00;;;0.88;;
31768;SDS011;18342;52.132;21.048;2022-07-29T11:17:25;3.03;;;0.90;;
31768;SDS011;18342;52.132;21.048;2022-07-29T11:19:51;2.22;;;0.93;;
31768;SDS011;18342;52.132;21.048;2022-07-29T11:22:32;0.90;;;0.68;;
31768;SDS011;18342;52.132;21.048;2022-07-29T11:27:40;1.50;;;0.55;;
31768;SDS011;18342;52.132;21.048;2022-07-29T11:30:07;2.15;;;1.05;;
31768;SDS011;18342;52.132;21.048;2022-07-29T11:32:38;0.93;;;0.60;;
31768;SDS011;18342;52.132;21.048;2022-07-29T11:37:37;2.10;;;0.57;;
31768;SDS011;18342;52.132;21.048;2022-07-29T11:47:32;3.80;;;0.80;;
31768;SDS011;18342;52.132;21.048;2022-07-29T11:49:59;2.75;;;0.63;;
31768;SDS011;18342;52.132;21.048;2022-07-29T11:52:40;1.58;;;0.68;;
31768;SDS011;18342;52.132;21.048;2022-07-29T11:55:16;3.08;;;0.70;;
31768;SDS011;18342;52.132;21.048;2022-07-29T11:57:47;3.88;;;0.80;;
31768;SDS011;18342;52.132;21.048;2022-07-29T12:00:21;1.50;;;0.55;;
31768;SDS011;18342;52.132;21.048;2022-07-29T12:02:48;3.60;;;0.90;;
31768;SDS011;18342;52.132;21.048;2022-07-29T12:05:15;1.80;;;0.80;;
31768;SDS011;18342;52.132;21.048;2022-07-29T12:07:41;4.75;;;0.88;;
31768;SDS011;18342;52.132;21.048;2022-07-29T12:10:07;3.22;;;0.63;;
31768;SDS011;18342;52.132;21.048;2022-07-29T12:12:33;2.22;;;0.63;;
31768;SDS011;18342;52.132;21.048;2022-07-29T12:15:13;2.03;;;0.75;;
31768;SDS011;18342;52.132;21.048;2022-07-29T12:17:44;3.38;;;0.80;;
31768;SDS011;18342;52.132;21.048;2022-07-29T12:20:11;3.30;;;0.73;;
31768;SDS011;18342;52.132;21.048;2022-07-29T12:22:38;1.27;;;0.70;;
31768;SDS011;18342;52.132;21.048;2022-07-29T12:25:07;3.22;;;0.85;;
31768;SDS011;18342;52.132;21.048;2022-07-29T12:27:35;2.17;;;0.65;;
31768;SDS011;18342;52.132;21.048;2022-07-29T12:30:06;1.55;;;0.73;;
31768;SDS011;18342;52.132;21.048;2022-07-29T12:32:38;1.40;;;0.77;;
31768;SDS011;18342;52.132;21.048;2022-07-29T12:35:05;2.92;;;0.60;;
31768;SDS011;18342;52.132;21.048;2022-07-29T12:37:37;0.77;;;0.52;;
31768;SDS011;18342;52.132;21.048;2022-07-29T12:40:04;1.77;;;0.88;;
31768;SDS011;18342;52.132;21.048;2022-07-29T12:42:32;2.47;;;0.73;;
31768;SDS011;18342;52.132;21.048;2022-07-29T12:44:59;1.38;;;0.80;;
31768;SDS011;18342;52.132;21.048;2022-07-29T12:47:25;4.05;;;0.90;;
31768;SDS011;18342;52.132;21.048;2022-07-29T12:49:51;1.23;;;0.70;;
31768;SDS011;18342;52.132;21.048;2022-07-29T12:52:35;1.75;;;0.90;;
31768;SDS011;18342;52.132;21.048;2022-07-29T12:55:01;3.90;;;0.90;;
31768;SDS011;18342;52.132;21.048;2022-07-29T12:57:28;1.05;;;0.70;;
31768;SDS011;18342;52.132;21.048;2022-07-29T13:00:13;1.23;;;0.70;;
31768;SDS011;18342;52.132;21.048;2022-07-29T13:02:40;1.58;;;0.80;;
31768;SDS011;18342;52.132;21.048;2022-07-29T13:05:08;2.05;;;0.88;;
31768;SDS011;18342;52.132;21.048;2022-07-29T13:07:35;3.35;;;0.65;;
31768;SDS011;18342;52.132;21.048;2022-07-29T13:10:18;2.35;;;0.77;;
31768;SDS011;18342;52.132;21.048;2022-07-29T13:16:04;2.22;;;0.70;;
31768;SDS011;18342;52.132;21.048;2022-07-29T13:18:33;4.53;;;0.85;;
31768;SDS011;18342;52.132;21.048;2022-07-29T13:21:10;5.75;;;0.70;;
31768;SDS011;18342;52.132;21.048;2022-07-29T13:23:37;3.33;;;0.80;;
31768;SDS011;18342;52.132;21.048;2022-07-29T13:26:06;6.80;;;1.05;;
31768;SDS011;18342;52.132;21.048;2022-07-29T13:28:41;1.85;;;0.60;;
31768;SDS011;18342;52.132;21.048;2022-07-29T13:31:06;1.15;;;0.75;;
31768;SDS011;18342;52.132;21.048;2022-07-29T13:33:32;3.28;;;0.93;;
31768;SDS011;18342;52.132;21.048;2022-07-29T13:35:58;3.10;;;0.70;;
31768;SDS011;18342;52.132;21.048;2022-07-29T13:38:23;1.77;;;0.85;;
31768;SDS011;18342;52.132;21.048;2022-07-29T13:40:49;0.70;;;0.57;;
31768;SDS011;18342;52.132;21.048;2022-07-29T13:43:15;2.05;;;1.00;;
31768;SDS011;18342;52.132;21.048;2022-07-29T13:45:41;1.85;;;0.80;;
31768;SDS011;18342;52.132;21.048;2022-07-29T13:48:07;0.93;;;0.70;;
31768;SDS011;18342;52.132;21.048;2022-07-29T13:50:32;1.60;;;0.60;;
31768;SDS011;18342;52.132;21.048;2022-07-29T13:52:58;1.55;;;0.68;;
31768;SDS011;18342;52.132;21.048;2022-07-29T13:55:24;2.10;;;0.63;;
31768;SDS011;18342;52.132;21.048;2022-07-29T13:57:50;2.35;;;0.70;;
31768;SDS011;18342;52.132;21.048;2022-07-29T14:00:15;1.98;;;0.70;;
31768;SDS011;18342;52.132;21.048;2022-07-29T14:02:41;0.85;;;0.80;;
31768;SDS011;18342;52.132;21.048;2022-07-29T14:05:08;3.92;;;0.82;;
31768;SDS011;18342;52.132;21.048;2022-07-29T14:07:35;4.18;;;0.90;;
31768;SDS011;18342;52.132;21.048;2022-07-29T14:10:01;0.70;;;0.70;;
31768;SDS011;18342;52.132;21.048;2022-07-29T14:12:28;0.60;;;0.60;;
31768;SDS011;18342;52.132;21.048;2022-07-29T14:14:53;0.80;;;0.52;;
31768;SDS011;18342;52.132;21.048;2022-07-29T14:17:19;1.15;;;0.57;;
31768;SDS011;18342;52.132;21.048;2022-07-29T14:19:45;1.65;;;0.93;;
31768;SDS011;18342;52.132;21.048;2022-07-29T14:22:10;3.45;;;0.90;;
31768;SDS011;18342;52.132;21.048;2022-07-29T14:24:36;0.93;;;0.60;;
31768;SDS011;18342;52.132;21.048;2022-07-29T14:27:03;3.03;;;0.60;;
31768;SDS011;18342;52.132;21.048;2022-07-29T14:29:29;0.45;;;0.45;;
31768;SDS011;18342;52.132;21.048;2022-07-29T14:31:55;1.70;;;0.70;;
31768;SDS011;18342;52.132;21.048;2022-07-29T14:34:21;1.08;;;0.70;;
31768;SDS011;18342;52.132;21.048;2022-07-29T14:36:47;2.60;;;0.70;;
31768;SDS011;18342;52.132;21.048;2022-07-29T14:39:12;3.95;;;0.70;;
31768;SDS011;18342;52.132;21.048;2022-07-29T14:41:40;0.95;;;0.77;;
31768;SDS011;18342;52.132;21.048;2022-07-29T14:44:06;2.10;;;0.80;;
31768;SDS011;18342;52.132;21.048;2022-07-29T14:46:32;1.95;;;0.60;;
31768;SDS011;18342;52.132;21.048;2022-07-29T14:48:57;1.50;;;0.88;;
31768;SDS011;18342;52.132;21.048;2022-07-29T14:51:23;1.55;;;0.70;;
31768;SDS011;18342;52.132;21.048;2022-07-29T14:53:49;2.25;;;0.80;;
31768;SDS011;18342;52.132;21.048;2022-07-29T14:56:15;3.80;;;1.05;;
31768;SDS011;18342;52.132;21.048;2022-07-29T14:58:41;2.05;;;0.80;;
31768;SDS011;18342;52.132;21.048;2022-07-29T15:01:06;2.25;;;0.90;;
31768;SDS011;18342;52.132;21.048;2022-07-29T15:03:34;4.90;;;0.80;;
31768;SDS011;18342;52.132;21.048;2022-07-29T15:06:00;1.10;;;0.88;;
31768;SDS011;18342;52.132;21.048;2022-07-29T15:08:26;3.33;;;0.80;;
31768;SDS011;18342;52.132;21.048;2022-07-29T15:10:54;1.63;;;0.80;;
31768;SDS011;18342;52.132;21.048;2022-07-29T15:13:22;3.38;;;0.60;;
31768;SDS011;18342;52.132;21.048;2022-07-29T15:15:48;2.05;;;0.77;;
31768;SDS011;18342;52.132;21.048;2022-07-29T15:18:14;1.42;;;0.70;;
31768;SDS011;18342;52.132;21.048;2022-07-29T15:20:40;2.25;;;0.77;;
31768;SDS011;18342;52.132;21.048;2022-07-29T15:23:05;1.67;;;0.75;;
31768;SDS011;18342;52.132;21.048;2022-07-29T15:25:34;3.58;;;0.75;;
31768;SDS011;18342;52.132;21.048;2022-07-29T15:28:01;2.78;;;0.80;;
31768;SDS011;18342;52.132;21.048;2022-07-29T15:30:32;1.13;;;0.70;;
31768;SDS011;18342;52.132;21.048;2022-07-29T15:32:59;2.53;;;0.60;;
31768;SDS011;18342;52.132;21.048;2022-07-29T15:35:28;1.00;;;0.52;;
31768;SDS011;18342;52.132;21.048;2022-07-29T15:37:54;4.60;;;0.73;;
31768;SDS011;18342;52.132;21.048;2022-07-29T15:40:19;1.20;;;0.60;;
31768;SDS011;18342;52.132;21.048;2022-07-29T15:42:45;1.15;;;0.70;;
31768;SDS011;18342;52.132;21.048;2022-07-29T15:45:11;2.67;;;0.93;;
31768;SDS011;18342;52.132;21.048;2022-07-29T15:47:36;1.48;;;0.80;;
31768;SDS011;18342;52.132;21.048;2022-07-29T15:50:02;1.85;;;0.85;;
31768;SDS011;18342;52.132;21.048;2022-07-29T15:52:28;1.90;;;0.70;;
31768;SDS011;18342;52.132;21.048;2022-07-29T15:54:54;1.00;;;0.80;;
31768;SDS011;18342;52.132;21.048;2022-07-29T15:57:21;1.83;;;0.60;;
31768;SDS011;18342;52.132;21.048;2022-07-29T15:59:47;3.50;;;1.13;;
31768;SDS011;18342;52.132;21.048;2022-07-29T16:02:13;1.90;;;0.88;;
31768;SDS011;18342;52.132;21.048;2022-07-29T16:04:39;4.93;;;0.73;;
31768;SDS011;18342;52.132;21.048;2022-07-29T16:07:05;1.23;;;0.68;;
31768;SDS011;18342;52.132;21.048;2022-07-29T16:09:31;1.42;;;0.90;;
31768;SDS011;18342;52.132;21.048;2022-07-29T16:11:57;1.38;;;0.73;;
31768;SDS011;18342;52.132;21.048;2022-07-29T16:14:22;2.78;;;0.95;;
31768;SDS011;18342;52.132;21.048;2022-07-29T16:16:48;1.55;;;0.80;;
31768;SDS011;18342;52.132;21.048;2022-07-29T16:19:14;2.95;;;0.90;;
31768;SDS011;18342;52.132;21.048;2022-07-29T16:21:39;1.00;;;0.60;;
31768;SDS011;18342;52.132;21.048;2022-07-29T16:24:05;2.70;;;0.80;;
31768;SDS011;18342;52.132;21.048;2022-07-29T16:26:32;2.25;;;0.65;;
31768;SDS011;18342;52.132;21.048;2022-07-29T16:28:58;2.78;;;0.85;;
31768;SDS011;18342;52.132;21.048;2022-07-29T16:31:25;5.85;;;1.63;;
31768;SDS011;18342;52.132;21.048;2022-07-29T16:33:54;3.10;;;0.98;;
31768;SDS011;18342;52.132;21.048;2022-07-29T16:36:20;0.70;;;0.60;;
31768;SDS011;18342;52.132;21.048;2022-07-29T16:38:46;3.83;;;0.82;;
31768;SDS011;18342;52.132;21.048;2022-07-29T16:41:12;2.70;;;0.70;;
31768;SDS011;18342;52.132;21.048;2022-07-29T16:43:38;3.28;;;0.90;;
31768;SDS011;18342;52.132;21.048;2022-07-29T16:46:06;2.00;;;0.70;;
31768;SDS011;18342;52.132;21.048;2022-07-29T16:48:33;7.47;;;1.65;;
31768;SDS011;18342;52.132;21.048;2022-07-29T16:50:59;2.58;;;1.00;;
31768;SDS011;18342;52.132;21.048;2022-07-29T16:53:25;1.83;;;0.93;;
31768;SDS011;18342;52.132;21.048;2022-07-29T16:55:50;1.38;;;0.80;;
31768;SDS011;18342;52.132;21.048;2022-07-29T16:58:16;1.38;;;0.80;;
31768;SDS011;18342;52.132;21.048;2022-07-29T17:00:42;4.25;;;0.60;;
31768;SDS011;18342;52.132;21.048;2022-07-29T17:03:07;1.63;;;0.70;;
31768;SDS011;18342;52.132;21.048;2022-07-29T17:05:33;2.13;;;1.00;;
31768;SDS011;18342;52.132;21.048;2022-07-29T17:07:59;1.52;;;0.68;;
31768;SDS011;18342;52.132;21.048;2022-07-29T17:10:24;1.60;;;0.82;;
31768;SDS011;18342;52.132;21.048;2022-07-29T17:12:50;5.05;;;1.02;;